Time;durP1;ratioP1;P1;durP2;ratioP2;P2;SDS_P1;SDS_P2;PMS_P1;PMS_P2;Temp;Humidity;BMP_temperature;BMP_pressure;BME280_temperature;BME280_humidity;BME280_pressure;Samples;Min_cycle;Max_cycle;Signal;HPM_P1;HPM_P2
2021/03/22 00:01:04;;;;;;;11.13;7.87;;;1.30;92.50;;;;;;4857956;28;20228;-79
2021/03/22 00:03:27;;;;;;;9.70;7.63;;;1.20;92.00;;;;;;4843422;28;20244;-78
2021/03/22 00:05:50;;;;;;;10.23;8.33;;;1.10;91.20;;;;;;4876907;28;20223;-79
2021/03/22 00:08:12;;;;;;;10.20;7.60;;;1.10;91.20;;;;;;4889738;28;20220;-77
2021/03/22 00:10:40;;;;;;;9.63;8.13;;;1.00;91.30;;;;;;4856948;28;20194;-79
2021/03/22 00:13:03;;;;;;;10.57;7.97;;;0.90;89.40;;;;;;4881763;28;20284;-79
2021/03/22 00:15:26;;;;;;;9.80;7.53;;;0.80;87.30;;;;;;4876771;28;20642;-79
2021/03/22 00:17:48;;;;;;;11.53;8.77;;;0.70;87.30;;;;;;4869763;28;20687;-77
2021/03/22 00:20:12;;;;;;;10.17;8.27;;;0.60;87.10;;;;;;4858347;28;20255;-77
2021/03/22 00:22:34;;;;;;;10.00;8.00;;;0.50;87.70;;;;;;4893923;28;20245;-78
2021/03/22 00:24:56;;;;;;;10.50;7.80;;;0.40;88.30;;;;;;4894372;28;20618;-77
2021/03/22 00:27:19;;;;;;;9.63;7.27;;;0.30;90.10;;;;;;4887524;28;20200;-77
2021/03/22 00:29:41;;;;;;;11.27;7.77;;;0.20;90.60;;;;;;4859596;28;20606;-78
2021/03/22 00:32:04;;;;;;;11.67;7.27;;;0.10;91.10;;;;;;4893554;28;20549;-78
2021/03/22 00:34:26;;;;;;;12.10;7.97;;;0.10;92.40;;;;;;4877456;28;20719;-78
2021/03/22 00:36:48;;;;;;;9.70;7.07;;;0.00;92.90;;;;;;4876506;28;20256;-79
2021/03/22 00:39:10;;;;;;;9.53;7.63;;;-0.10;93.30;;;;;;4895518;28;20185;-80
2021/03/22 00:41:32;;;;;;;10.83;7.33;;;-0.20;94.00;;;;;;4871579;28;20205;-78
2021/03/22 00:43:55;;;;;;;10.00;7.47;;;-0.30;94.30;;;;;;4890736;28;20661;-78
2021/03/22 00:46:18;;;;;;;11.17;7.67;;;-0.40;94.80;;;;;;4848693;28;20693;-79
2021/03/22 00:48:40;;;;;;;10.23;7.40;;;-0.50;94.90;;;;;;4895230;28;21012;-78
2021/03/22 00:51:04;;;;;;;10.13;7.30;;;-0.60;95.20;;;;;;4875638;28;20638;-78
2021/03/22 00:53:26;;;;;;;11.77;7.50;;;-0.70;95.30;;;;;;4899408;28;20610;-78
2021/03/22 00:55:48;;;;;;;10.27;7.50;;;-0.80;95.10;;;;;;4870641;28;20622;-78
2021/03/22 00:58:10;;;;;;;10.83;7.17;;;-0.90;95.10;;;;;;4898674;28;20601;-78
2021/03/22 01:00:39;;;;;;;10.30;8.00;;;-1.00;95.60;;;;;;4866991;28;20189;-78
2021/03/22 01:03:01;;;;;;;9.57;7.30;;;-1.00;96.80;;;;;;4846318;28;21036;-79
2021/03/22 01:05:25;;;;;;;10.20;7.37;;;-1.10;98.10;;;;;;4862076;28;20611;-78
2021/03/22 01:07:47;;;;;;;10.40;7.43;;;-1.20;99.50;;;;;;4844225;28;21320;-78
2021/03/22 01:10:21;;;;;;;9.13;7.40;;;-1.20;99.90;;;;;;4879431;28;20590;-78
2021/03/22 01:12:43;;;;;;;11.20;7.03;;;-1.20;99.90;;;;;;4863196;28;20643;-77
2021/03/22 01:15:06;;;;;;;10.37;7.13;;;-1.30;99.90;;;;;;4864230;28;21019;-78
2021/03/22 01:17:29;;;;;;;10.20;6.83;;;-1.30;99.90;;;;;;4886845;28;20989;-78
2021/03/22 01:19:51;;;;;;;8.30;6.47;;;-1.40;99.90;;;;;;4859958;28;21022;-77
2021/03/22 01:22:14;;;;;;;9.43;7.57;;;-1.40;99.90;;;;;;4892539;28;20613;-77
2021/03/22 01:24:36;;;;;;;9.47;7.50;;;-1.40;99.90;;;;;;4863938;28;20628;-78
2021/03/22 01:27:00;;;;;;;10.83;7.30;;;-1.40;99.90;;;;;;4898944;28;20992;-77
2021/03/22 01:29:26;;;;;;;12.33;7.13;;;-1.50;99.90;;;;;;4879083;28;20618;-77
2021/03/22 01:31:49;;;;;;;11.00;6.57;;;-1.50;99.90;;;;;;4898433;28;21252;-79
2021/03/22 01:34:12;;;;;;;9.20;6.73;;;-1.60;99.90;;;;;;4898754;28;20633;-78
2021/03/22 01:36:35;;;;;;;9.73;5.70;;;-1.60;99.90;;;;;;4898802;28;21170;-79
2021/03/22 01:39:01;;;;;;;9.90;6.97;;;-1.60;99.90;;;;;;4880276;28;20614;-79
2021/03/22 01:41:53;;;;;;;10.63;6.77;;;-1.60;99.90;;;;;;4896090;28;20623;-81
2021/03/22 01:44:20;;;;;;;12.70;7.33;;;-1.70;99.90;;;;;;4887042;28;20636;-78
2021/03/22 01:46:45;;;;;;;8.47;6.43;;;-1.60;99.90;;;;;;4845008;28;20616;-79
2021/03/22 01:49:07;;;;;;;10.30;7.20;;;-1.70;99.90;;;;;;4861503;28;20615;-79
2021/03/22 01:51:30;;;;;;;8.97;6.60;;;-1.70;99.90;;;;;;4877579;28;21159;-83
2021/03/22 01:53:52;;;;;;;8.93;6.73;;;-1.70;99.90;;;;;;4844481;28;21302;-76
2021/03/22 01:56:32;;;;;;;9.17;6.23;;;-1.70;99.90;;;;;;4861290;28;20665;-79
2021/03/22 01:58:55;;;;;;;10.00;6.20;;;-1.80;99.90;;;;;;4894147;28;20714;-78
2021/03/22 02:01:18;;;;;;;11.87;7.27;;;-1.80;99.90;;;;;;4858628;28;20665;-78
2021/03/22 02:03:41;;;;;;;9.70;6.97;;;-1.80;99.90;;;;;;4859547;28;20685;-77
2021/03/22 02:06:03;;;;;;;9.87;7.27;;;-1.80;99.90;;;;;;4879482;28;20747;-78
2021/03/22 02:08:31;;;;;;;13.33;7.67;;;-1.70;99.90;;;;;;4864142;28;20662;-78
2021/03/22 02:10:53;;;;;;;11.20;7.87;;;-1.60;99.90;;;;;;4879139;28;20619;-78
2021/03/22 02:13:22;;;;;;;13.37;8.43;;;-1.40;99.90;;;;;;4878704;28;21293;-78
2021/03/22 02:15:45;;;;;;;10.93;7.63;;;-1.30;99.90;;;;;;4880073;28;20582;-77
2021/03/22 02:18:14;;;;;;;10.80;7.33;;;-1.10;99.90;;;;;;4898231;28;20598;-77
2021/03/22 02:21:27;;;;;;;11.23;7.97;;;-1.00;99.90;;;;;;4862135;28;20977;-78
2021/03/22 02:24:35;;;;;;;11.60;8.20;;;-0.90;99.90;;;;;;4878581;28;20621;-79
2021/03/22 02:27:38;;;;;;;12.23;8.80;;;-0.70;99.90;;;;;;4897828;28;20592;-77
2021/03/22 02:30:21;;;;;;;9.90;8.00;;;-0.60;99.90;;;;;;4861798;28;20701;-79
2021/03/22 02:33:16;;;;;;;14.27;7.97;;;-0.50;99.90;;;;;;4879783;28;20631;-81
2021/03/22 02:35:47;;;;;;;9.70;7.43;;;-0.50;99.90;;;;;;4861679;28;21029;-79
2021/03/22 02:38:13;;;;;;;10.03;6.97;;;-0.40;99.90;;;;;;4862748;28;21061;-79
2021/03/22 02:40:43;;;;;;;12.97;7.40;;;-0.40;99.90;;;;;;4878781;28;21010;-78
2021/03/22 02:43:06;;;;;;;8.63;7.00;;;-0.30;99.90;;;;;;4879671;28;20640;-79
2021/03/22 02:45:31;;;;;;;11.20;6.67;;;-0.30;99.90;;;;;;4862084;28;20201;-79
2021/03/22 02:47:54;;;;;;;11.83;7.37;;;-0.20;99.90;;;;;;4879238;28;21176;-78
2021/03/22 02:50:20;;;;;;;10.77;6.70;;;-0.20;99.90;;;;;;4861791;28;20224;-81
2021/03/22 02:53:10;;;;;;;8.97;6.70;;;-0.20;99.90;;;;;;4879102;28;20225;-78
2021/03/22 02:55:43;;;;;;;10.70;7.83;;;-0.10;99.90;;;;;;4875007;28;20218;-78
2021/03/22 02:58:09;;;;;;;9.47;6.93;;;-0.10;99.90;;;;;;4859914;28;20650;-78
2021/03/22 03:00:34;;;;;;;9.87;6.60;;;-0.10;98.70;;;;;;4840444;28;20649;-80
2021/03/22 03:03:02;;;;;;;8.90;6.17;;;-0.10;96.20;;;;;;4877606;28;20215;-78
2021/03/22 03:05:27;;;;;;;9.00;6.73;;;-0.10;94.30;;;;;;4865664;28;20227;-79
2021/03/22 03:07:49;;;;;;;10.37;6.37;;;-0.10;92.60;;;;;;4895990;28;20969;-78
2021/03/22 03:10:17;;;;;;;9.20;6.57;;;-0.10;92.00;;;;;;4861545;28;20707;-77
2021/03/22 03:12:39;;;;;;;11.33;7.00;;;-0.10;91.70;;;;;;4870074;28;20620;-78
2021/03/22 03:15:01;;;;;;;10.17;6.80;;;-0.10;91.50;;;;;;4876392;28;20752;-79
2021/03/22 03:17:24;;;;;;;9.47;6.77;;;-0.10;90.50;;;;;;4859394;28;20198;-78
2021/03/22 03:19:47;;;;;;;7.83;6.50;;;-0.10;86.90;;;;;;4858164;28;20612;-77
2021/03/22 03:22:09;;;;;;;8.73;6.40;;;-0.10;83.50;;;;;;4859919;28;20583;-78
2021/03/22 03:24:32;;;;;;;9.27;6.43;;;-0.20;80.20;;;;;;4859687;28;20202;-78
2021/03/22 03:26:55;;;;;;;8.93;6.43;;;-0.20;74.40;;;;;;4877365;28;20185;-78
2021/03/22 03:29:17;;;;;;;9.20;6.47;;;-0.30;70.10;;;;;;4858234;28;20594;-78
2021/03/22 03:31:39;;;;;;;8.50;6.50;;;-0.30;68.00;;;;;;4842563;28;20199;-82
2021/03/22 03:34:02;;;;;;;9.03;5.93;;;-0.40;69.00;;;;;;4876896;28;20209;-79
2021/03/22 03:36:24;;;;;;;10.03;5.97;;;-0.30;69.20;;;;;;4859229;28;20678;-77
2021/03/22 03:38:46;;;;;;;9.00;5.93;;;-0.30;68.50;;;;;;4842222;28;20672;-81
2021/03/22 03:41:08;;;;;;;8.20;5.73;;;-0.30;64.60;;;;;;4858148;28;20616;-77
2021/03/22 03:43:31;;;;;;;7.83;5.83;;;-0.40;59.00;;;;;;4859036;28;20615;-78
2021/03/22 03:45:53;;;;;;;9.50;6.10;;;-0.40;56.00;;;;;;4850141;28;20631;-81
2021/03/22 03:48:21;;;;;;;9.17;6.20;;;-0.50;55.00;;;;;;4861769;28;21280;-78
2021/03/22 03:50:43;;;;;;;8.20;6.37;;;-0.60;54.30;;;;;;4876846;28;20698;-79
2021/03/22 03:53:05;;;;;;;9.70;5.60;;;-0.70;55.10;;;;;;4878911;28;21224;-79
2021/03/22 03:55:29;;;;;;;7.97;4.73;;;-0.70;55.70;;;;;;4858040;28;20659;-79
2021/03/22 03:57:53;;;;;;;7.30;5.00;;;-0.70;55.00;;;;;;4858748;28;20642;-78
2021/03/22 04:00:27;;;;;;;6.83;5.13;;;-0.80;51.30;;;;;;4874811;28;20656;-78
2021/03/22 04:02:49;;;;;;;6.97;5.23;;;-0.90;49.20;;;;;;4858765;28;20620;-76
2021/03/22 04:05:12;;;;;;;7.20;5.00;;;-1.00;48.80;;;;;;4877716;28;20614;-76
2021/03/22 04:07:34;;;;;;;6.20;4.77;;;-1.10;46.80;;;;;;4878695;28;20582;-77
2021/03/22 04:09:56;;;;;;;8.07;5.00;;;-1.20;51.20;;;;;;4877269;28;20594;-77
2021/03/22 04:12:18;;;;;;;7.33;5.63;;;-1.20;55.60;;;;;;4871843;28;20615;-76
2021/03/22 04:14:40;;;;;;;10.67;6.50;;;-1.20;58.00;;;;;;4861952;28;20706;-77
2021/03/22 04:17:04;;;;;;;8.33;6.00;;;-1.30;59.50;;;;;;4841920;28;21440;-78
2021/03/22 04:19:26;;;;;;;9.53;6.37;;;-1.30;61.30;;;;;;4857974;28;20608;-77
2021/03/22 04:21:49;;;;;;;8.23;6.30;;;-1.30;63.70;;;;;;4876141;28;21189;-77
2021/03/22 04:24:12;;;;;;;8.77;6.60;;;-1.40;65.00;;;;;;4841223;28;20636;-77
2021/03/22 04:26:35;;;;;;;8.13;6.33;;;-1.40;65.60;;;;;;4858389;28;20620;-78
2021/03/22 04:28:57;;;;;;;8.40;6.10;;;-1.50;66.80;;;;;;4841895;28;20636;-77
2021/03/22 04:31:21;;;;;;;9.60;6.57;;;-1.50;69.50;;;;;;4857590;28;20654;-77
2021/03/22 04:33:45;;;;;;;8.90;6.00;;;-1.60;68.00;;;;;;4841040;28;20738;-78
2021/03/22 04:36:08;;;;;;;9.43;6.00;;;-1.60;67.30;;;;;;4858578;28;21252;-78
2021/03/22 04:38:30;;;;;;;10.27;5.77;;;-1.70;66.00;;;;;;4841682;28;20633;-78
2021/03/22 04:40:52;;;;;;;9.70;7.07;;;-1.80;67.70;;;;;;4840993;28;20662;-77
2021/03/22 04:43:15;;;;;;;9.90;6.77;;;-1.80;68.90;;;;;;4858461;28;20992;-77
2021/03/22 04:45:37;;;;;;;9.97;7.43;;;-1.90;71.10;;;;;;4840846;28;21061;-78
2021/03/22 04:47:59;;;;;;;9.50;6.93;;;-1.90;72.60;;;;;;4876055;28;20640;-77
2021/03/22 04:50:24;;;;;;;8.03;6.30;;;-2.00;75.50;;;;;;4875694;28;20636;-77
2021/03/22 04:52:47;;;;;;;9.97;7.17;;;-2.00;77.90;;;;;;4841769;28;20708;-77
2021/03/22 04:55:10;;;;;;;14.60;8.43;;;-2.10;79.00;;;;;;4857398;28;20663;-78
2021/03/22 04:57:34;;;;;;;14.33;8.37;;;-2.10;80.80;;;;;;4876298;28;20593;-78
2021/03/22 04:59:57;;;;;;;12.70;9.33;;;-2.10;83.90;;;;;;4840744;28;21077;-78
2021/03/22 05:02:19;;;;;;;52.60;26.03;;;-2.10;87.20;;;;;;4856310;28;20680;-78
2021/03/22 05:04:41;;;;;;;47.50;25.50;;;-2.10;90.60;;;;;;4841687;28;21176;-78
2021/03/22 05:07:06;;;;;;;29.87;17.43;;;-2.00;91.50;;;;;;4857169;28;20627;-79
2021/03/22 05:09:28;;;;;;;43.23;24.03;;;-2.10;92.10;;;;;;4856592;28;21255;-77
2021/03/22 05:11:50;;;;;;;45.10;25.67;;;-2.00;93.00;;;;;;4861478;28;20658;-78
2021/03/22 05:14:12;;;;;;;50.20;27.97;;;-2.00;93.60;;;;;;4841864;28;20615;-77
2021/03/22 05:16:34;;;;;;;44.30;25.13;;;-2.10;93.70;;;;;;4841106;28;20625;-78
2021/03/22 05:18:56;;;;;;;34.80;20.33;;;-2.10;93.60;;;;;;4840974;28;21016;-77
2021/03/22 05:21:18;;;;;;;55.83;30.13;;;-2.10;93.50;;;;;;4857319;28;21246;-78
2021/03/22 05:23:41;;;;;;;105.83;52.57;;;-2.20;93.30;;;;;;4875750;28;20594;-78
2021/03/22 05:26:04;;;;;;;83.17;41.30;;;-2.20;94.10;;;;;;4841376;28;21098;-81
2021/03/22 05:28:29;;;;;;;68.93;33.20;;;-2.20;94.30;;;;;;4840439;28;21236;-77
2021/03/22 05:30:51;;;;;;;63.17;27.50;;;-2.20;95.10;;;;;;4875021;28;20586;-78
2021/03/22 05:33:16;;;;;;;55.87;22.97;;;-2.10;96.00;;;;;;4858205;28;20619;-78
2021/03/22 05:35:39;;;;;;;37.07;16.70;;;-2.10;96.70;;;;;;4875831;28;21063;-79
2021/03/22 05:38:01;;;;;;;23.23;12.80;;;-2.00;97.30;;;;;;4842205;28;20667;-78
2021/03/22 05:40:26;;;;;;;24.20;11.63;;;-2.00;97.90;;;;;;4878101;28;20591;-78
2021/03/22 05:42:59;;;;;;;17.53;10.73;;;-1.90;98.20;;;;;;4861477;28;20623;-78
2021/03/22 05:45:35;;;;;;;23.63;13.33;;;-1.90;97.90;;;;;;4885433;28;21162;-78
2021/03/22 05:48:05;;;;;;;18.23;11.30;;;-1.80;97.90;;;;;;4880430;28;20652;-78
2021/03/22 05:50:33;;;;;;;21.50;11.43;;;-1.70;97.70;;;;;;4897160;28;20619;-77
2021/03/22 05:53:06;;;;;;;25.27;12.43;;;-1.70;97.80;;;;;;4863668;28;20631;-79
2021/03/22 05:55:50;;;;;;;18.97;9.77;;;-1.60;98.00;;;;;;4876891;28;20671;-78
2021/03/22 05:58:34;;;;;;;11.87;8.07;;;-1.50;97.60;;;;;;4861057;28;20618;-77
2021/03/22 06:01:02;;;;;;;13.73;8.53;;;-1.40;95.90;;;;;;4874892;28;20748;-78
2021/03/22 06:03:31;;;;;;;16.83;9.23;;;-1.30;94.60;;;;;;4860938;28;21055;-78
2021/03/22 06:06:03;;;;;;;16.33;9.30;;;-1.30;93.80;;;;;;4879592;28;21077;-77
2021/03/22 06:08:33;;;;;;;17.83;9.60;;;-1.20;93.00;;;;;;4891880;28;20664;-78
2021/03/22 06:10:57;;;;;;;17.07;9.37;;;-1.30;91.30;;;;;;4859515;28;20604;-78
2021/03/22 06:13:26;;;;;;;18.47;9.93;;;-1.20;85.80;;;;;;4879152;28;20675;-78
2021/03/22 06:15:55;;;;;;;20.97;11.63;;;-1.10;81.40;;;;;;4862964;28;20715;-77
2021/03/22 06:18:28;;;;;;;23.20;12.57;;;-1.10;81.00;;;;;;4848324;28;20731;-78
2021/03/22 06:20:54;;;;;;;22.80;12.67;;;-1.00;80.70;;;;;;4862542;28;20642;-79
2021/03/22 06:23:21;;;;;;;16.70;10.57;;;-1.00;79.00;;;;;;4860360;28;20627;-77
2021/03/22 06:25:43;;;;;;;16.37;9.27;;;-0.90;77.90;;;;;;4868168;28;20692;-78
2021/03/22 06:28:20;;;;;;;17.30;10.70;;;-0.80;76.20;;;;;;4897155;28;20675;-78
2021/03/22 06:30:53;;;;;;;20.00;9.67;;;-0.70;73.60;;;;;;4886274;28;20589;-78
2021/03/22 06:33:26;;;;;;;12.97;8.67;;;-0.60;71.90;;;;;;4860951;28;20623;-78
2021/03/22 06:35:51;;;;;;;12.47;8.97;;;-0.40;69.30;;;;;;4871444;28;21459;-78
2021/03/22 06:38:14;;;;;;;15.50;9.57;;;-0.30;62.50;;;;;;4895270;28;20696;-77
2021/03/22 06:40:37;;;;;;;17.50;9.80;;;-0.10;58.20;;;;;;4866226;28;20614;-77
2021/03/22 06:43:05;;;;;;;15.27;9.20;;;0.10;56.60;;;;;;4885990;28;20672;-77
2021/03/22 06:45:31;;;;;;;13.37;8.97;;;0.30;45.20;;;;;;4867982;28;20649;-78
2021/03/22 06:48:13;;;;;;;12.30;8.20;;;0.40;33.60;;;;;;4849607;28;21048;-78
2021/03/22 06:50:35;;;;;;;11.50;7.77;;;0.60;25.40;;;;;;4866605;28;20631;-80
2021/03/22 06:52:57;;;;;;;15.77;9.20;;;0.70;17.80;;;;;;4878082;28;20197;-77
2021/03/22 06:55:32;;;;;;;13.70;8.17;;;0.80;9.60;;;;;;4859182;28;20655;-77
2021/03/22 06:57:55;;;;;;;11.53;7.67;;;1.00;1.00;;;;;;4878908;28;20574;-79
2021/03/22 07:00:21;;;;;;;12.47;7.87;;;1.00;1.00;;;;;;4843031;28;20183;-78
2021/03/22 07:02:46;;;;;;;15.50;9.00;;;1.10;1.00;;;;;;4877072;28;20609;-77
2021/03/22 07:05:21;;;;;;;14.67;9.37;;;1.20;1.00;;;;;;4877264;28;20594;-78
2021/03/22 07:07:53;;;;;;;11.50;7.70;;;1.20;1.00;;;;;;4843315;28;20197;-78
2021/03/22 07:10:17;;;;;;;15.20;8.10;;;1.40;1.00;;;;;;4859476;28;20202;-79
2021/03/22 07:12:41;;;;;;;11.27;7.40;;;1.60;1.00;;;;;;4876063;28;20190;-79
2021/03/22 07:15:25;;;;;;;13.47;7.50;;;1.60;1.00;;;;;;4896325;28;20208;-81
2021/03/22 07:18:02;;;;;;;11.87;7.10;;;1.70;1.00;;;;;;4855206;28;22101;-78
2021/03/22 07:20:25;;;;;;;12.17;7.87;;;1.80;99.90;;;;;;4879191;28;20185;-79
2021/03/22 07:22:47;;;;;;;11.60;7.17;;;1.90;1.00;;;;;;4860312;28;20243;-78
2021/03/22 07:25:32;;;;;;;12.90;7.30;;;2.10;1.00;;;;;;4878322;28;20205;-78
2021/03/22 07:28:06;;;;;;;9.47;7.10;;;2.20;1.00;;;;;;4875604;28;20622;-78
2021/03/22 07:30:34;;;;;;;14.63;7.77;;;2.40;1.00;;;;;;4842924;28;20260;-81
2021/03/22 07:33:30;;;;;;;12.00;7.63;;;2.60;1.00;;;;;;4826879;28;20199;-79
2021/03/22 07:36:21;;;;;;;11.33;7.77;;;2.90;1.00;;;;;;4846279;28;20275;-78
2021/03/22 07:39:12;;;;;;;10.83;6.50;;;3.40;99.90;;;;;;4873222;28;20224;-78
2021/03/22 07:41:47;;;;;;;10.83;6.63;;;3.90;99.90;;;;;;4861676;28;20194;-77
2021/03/22 07:44:27;;;;;;;7.33;4.60;;;4.60;99.90;;;;;;4863718;28;20211;-78
2021/03/22 07:47:08;;;;;;;6.97;4.93;;;5.20;1.00;;;;;;4891750;28;20181;-79
2021/03/22 07:49:42;;;;;;;5.07;4.27;;;5.90;1.00;;;;;;4844123;28;20319;-76
2021/03/22 07:52:19;;;;;;;5.63;4.00;;;6.60;1.00;;;;;;4859347;28;20228;-77
2021/03/22 07:54:54;;;;;;;6.17;4.20;;;7.00;1.00;;;;;;4826597;28;20198;-76
2021/03/22 07:57:28;;;;;;;4.00;3.53;;;7.20;1.00;;;;;;4861298;28;20208;-78
2021/03/22 07:59:58;;;;;;;4.40;3.90;;;7.40;1.00;;;;;;4840356;28;20256;-78
2021/03/22 08:02:33;;;;;;;4.03;3.37;;;7.50;1.00;;;;;;4884161;28;20192;-78
2021/03/22 08:05:02;;;;;;;5.33;3.03;;;7.80;1.00;;;;;;4893977;28;20211;-78
2021/03/22 08:08:09;;;;;;;4.97;3.57;;;8.00;1.00;;;;;;4875531;28;20619;-80
2021/03/22 08:10:40;;;;;;;5.10;3.70;;;8.40;1.00;;;;;;4871197;28;20681;-80
2021/03/22 08:13:23;;;;;;;5.40;3.50;;;8.80;1.00;;;;;;4849871;28;20312;-79
2021/03/22 08:15:56;;;;;;;5.27;3.50;;;9.20;1.00;;;;;;4863203;28;20225;-79
2021/03/22 08:18:27;;;;;;;4.00;3.40;;;9.60;1.00;;;;;;4872198;28;20186;-80
2021/03/22 08:21:00;;;;;;;4.57;3.00;;;10.00;1.00;;;;;;4868591;28;20190;-80
2021/03/22 08:23:32;;;;;;;4.50;3.10;;;10.10;99.90;;;;;;4871423;28;20279;-79
2021/03/22 08:25:57;;;;;;;3.23;2.93;;;10.10;99.90;;;;;;4859348;28;20196;-78
2021/03/22 08:28:27;;;;;;;4.20;3.17;;;10.10;99.90;;;;;;4846487;28;20205;-80
2021/03/22 08:30:59;;;;;;;3.37;3.07;;;10.20;99.90;;;;;;4860433;28;20245;-78
2021/03/22 08:33:27;;;;;;;3.60;3.30;;;10.40;99.90;;;;;;4858524;28;20193;-85
2021/03/22 08:35:59;;;;;;;3.10;2.70;;;10.50;99.90;;;;;;4865078;28;20233;-80
2021/03/22 08:38:32;;;;;;;3.13;2.67;;;10.60;99.90;;;;;;4878051;28;20181;-84
2021/03/22 08:40:56;;;;;;;2.93;2.63;;;10.80;99.90;;;;;;4859905;28;20224;-81
2021/03/22 08:43:31;;;;;;;3.40;2.80;;;11.10;99.90;;;;;;4861211;28;20253;-78
2021/03/22 08:46:06;;;;;;;2.63;2.43;;;11.30;99.90;;;;;;4892124;28;20226;-80
2021/03/22 08:48:30;;;;;;;3.07;2.77;;;11.60;99.90;;;;;;4892406;28;20586;-80
2021/03/22 08:50:54;;;;;;;3.07;2.77;;;12.00;99.90;;;;;;4875854;28;20233;-78
2021/03/22 08:53:20;;;;;;;2.70;2.47;;;12.30;99.90;;;;;;4876133;28;20197;-80
2021/03/22 08:55:46;;;;;;;2.83;2.50;;;12.70;99.90;;;;;;4871720;28;20229;-80
2021/03/22 08:58:19;;;;;;;2.80;2.37;;;13.10;99.90;;;;;;4885226;28;20188;-83
2021/03/22 09:00:44;;;;;;;2.70;2.50;;;13.40;99.90;;;;;;4892363;28;21024;-80
2021/03/22 09:03:28;;;;;;;1.97;1.87;;;13.70;99.90;;;;;;4877137;28;20227;-79
2021/03/22 09:06:15;;;;;;;2.30;1.67;;;14.10;99.90;;;;;;4875720;28;20768;-85
2021/03/22 09:08:39;;;;;;;2.03;1.83;;;14.30;99.90;;;;;;4875095;28;20208;-78
2021/03/22 09:11:16;;;;;;;2.00;1.83;;;14.40;99.90;;;;;;4873668;28;20579;-80
2021/03/22 09:13:38;;;;;;;1.87;1.70;;;14.00;99.90;;;;;;4891254;28;20200;-81
2021/03/22 09:16:14;;;;;;;2.13;1.60;;;13.60;99.90;;;;;;4895454;28;20211;-79
2021/03/22 09:19:27;;;;;;;1.93;1.83;;;13.00;99.90;;;;;;4878907;28;20255;-82
2021/03/22 09:21:53;;;;;;;1.63;1.53;;;12.30;99.90;;;;;;4858820;28;20209;-83
2021/03/22 09:24:46;;;;;;;1.80;1.67;;;11.60;99.90;;;;;;4878775;28;20251;-82
2021/03/22 09:27:29;;;;;;;1.90;1.70;;;11.00;99.90;;;;;;4843726;28;20680;-79
2021/03/22 09:29:53;;;;;;;1.60;1.50;;;10.30;99.90;;;;;;4847212;28;20241;-85
2021/03/22 09:32:43;;;;;;;2.13;2.00;;;9.90;99.90;;;;;;4852531;28;20195;-80
2021/03/22 09:35:26;;;;;;;1.63;1.50;;;9.50;99.90;;;;;;4871118;28;20271;-79
2021/03/22 09:37:53;;;;;;;1.80;1.70;;;9.40;99.90;;;;;;4864377;28;20748;-76
2021/03/22 09:40:52;;;;;;;2.30;2.10;;;9.40;99.90;;;;;;4860699;28;20186;-78
2021/03/22 09:43:47;;;;;;;2.20;2.00;;;9.30;99.90;;;;;;4875226;28;20189;-78
2021/03/22 09:46:31;;;;;;;1.63;1.47;;;9.20;99.90;;;;;;4893286;28;20799;-80
2021/03/22 09:49:27;;;;;;;2.37;1.70;;;9.20;99.90;;;;;;4826583;28;20191;-79
2021/03/22 09:51:52;;;;;;;1.87;1.70;;;9.20;99.90;;;;;;4793408;28;20223;-78
2021/03/22 09:54:38;;;;;;;2.27;2.07;;;9.10;99.90;;;;;;4883987;28;20258;-80
2021/03/22 09:57:34;;;;;;;2.13;1.93;;;9.10;99.90;;;;;;4884480;28;20189;-77
2021/03/22 10:00:24;;;;;;;2.10;1.70;;;9.90;99.90;;;;;;4859201;28;20210;-77
2021/03/22 10:02:50;;;;;;;1.87;1.70;;;11.30;99.90;;;;;;4877427;28;20643;-79
2021/03/22 10:05:22;;;;;;;1.47;1.37;;;11.70;99.90;;;;;;4878676;28;20631;-77
2021/03/22 10:07:58;;;;;;;1.20;1.10;;;12.10;99.90;;;;;;4858578;28;20197;-78
2021/03/22 10:10:28;;;;;;;1.13;1.07;;;12.20;99.90;;;;;;4879627;28;20623;-78
2021/03/22 10:12:53;;;;;;;1.93;1.10;;;12.50;99.90;;;;;;4890216;28;20197;-79
2021/03/22 10:15:27;;;;;;;0.80;0.80;;;13.50;99.90;;;;;;4860545;28;20263;-79
2021/03/22 10:17:57;;;;;;;0.93;0.93;;;14.90;99.90;;;;;;4876195;28;20663;-76
2021/03/22 10:20:28;;;;;;;0.50;0.50;;;16.60;99.90;;;;;;4842880;28;20944;-77
2021/03/22 10:23:00;;;;;;;0.20;0.20;;;19.60;99.90;;;;;;4878458;28;20242;-79
2021/03/22 10:25:28;;;;;;;0.30;0.30;;;21.80;99.90;;;;;;4860470;28;20605;-77
2021/03/22 10:27:59;;;;;;;0.30;0.30;;;24.10;99.90;;;;;;4872418;28;20254;-78
2021/03/22 10:30:23;;;;;;;0.30;0.30;;;26.70;99.90;;;;;;4886212;28;20200;-77
2021/03/22 10:32:50;;;;;;;0.20;0.20;;;29.10;99.90;;;;;;4864652;28;20279;-76
2021/03/22 10:35:16;;;;;;;0.30;0.30;;;30.20;99.90;;;;;;4859646;28;20224;-73
2021/03/22 10:37:44;;;;;;;0.20;0.20;;;29.40;99.90;;;;;;4859366;28;20273;-90
2021/03/22 10:40:16;;;;;;;0.20;0.20;;;28.10;99.90;;;;;;4852344;28;20211;-73
2021/03/22 10:42:40;;;;;;;0.20;0.20;;;28.60;99.90;;;;;;4892472;28;20176;-76
2021/03/22 10:45:17;;;;;;;0.20;0.20;;;30.40;99.90;;;;;;4881822;28;20189;-75
2021/03/22 10:47:40;;;;;;;0.20;0.20;;;32.40;99.90;;;;;;4859860;28;20563;-75
2021/03/22 10:50:19;;;;;;;0.20;0.20;;;33.70;99.90;;;;;;4891315;28;20219;-77
2021/03/22 10:52:41;;;;;;;0.20;0.20;;;34.80;99.90;;;;;;4895632;28;20740;-76
2021/03/22 10:55:04;;;;;;;0.20;0.20;;;35.50;99.90;;;;;;4881379;28;20192;-75
2021/03/22 10:57:31;;;;;;;0.22;0.22;;;35.40;99.90;;;;;;4880923;28;20193;-74
2021/03/22 10:59:57;;;;;;;0.20;0.20;;;35.10;99.90;;;;;;4873310;28;20267;-75
2021/03/22 11:02:24;;;;;;;0.25;0.25;;;34.10;99.90;;;;;;4876588;28;20208;-76
2021/03/22 11:04:47;;;;;;;0.22;0.22;;;32.40;99.90;;;;;;4876131;28;20251;-75
2021/03/22 11:07:12;;;;;;;0.20;0.20;;;30.50;99.90;;;;;;4852541;28;20692;-78
2021/03/22 11:09:35;;;;;;;0.20;0.20;;;29.40;99.90;;;;;;4868074;28;20665;-80
2021/03/22 11:12:00;;;;;;;0.30;0.30;;;29.00;99.90;;;;;;4890928;28;20199;-78
2021/03/22 11:14:25;;;;;;;0.20;0.20;;;29.70;99.90;;;;;;4865236;28;20193;-78
2021/03/22 11:16:49;;;;;;;0.20;0.20;;;30.60;99.90;;;;;;4857378;28;20228;-77
2021/03/22 11:19:26;;;;;;;0.25;0.25;;;31.30;99.90;;;;;;4841892;28;20194;-75
2021/03/22 11:21:48;;;;;;;0.20;0.20;;;32.20;99.90;;;;;;4871069;28;20654;-76
2021/03/22 11:24:17;;;;;;;0.30;0.30;;;32.20;99.90;;;;;;4861596;28;20206;-76
2021/03/22 11:26:39;;;;;;;0.20;0.20;;;30.90;99.90;;;;;;4867318;28;20197;-76
2021/03/22 11:29:18;;;;;;;0.20;0.20;;;28.90;99.90;;;;;;4861775;28;20754;-75
2021/03/22 11:31:42;;;;;;;0.20;0.20;;;26.50;99.90;;;;;;4887945;28;20188;-77
2021/03/22 11:34:20;;;;;;;0.23;0.23;;;24.50;99.90;;;;;;4858441;28;20661;-77
2021/03/22 11:36:45;;;;;;;0.20;0.20;;;23.00;99.90;;;;;;4874937;28;20265;-76
2021/03/22 11:39:14;;;;;;;0.20;0.20;;;22.90;99.90;;;;;;4876750;28;20200;-76
2021/03/22 11:41:39;;;;;;;0.20;0.20;;;23.50;99.90;;;;;;4858503;28;20272;-81
2021/03/22 11:44:05;;;;;;;0.23;0.23;;;24.60;99.90;;;;;;4858515;28;20254;-78
2021/03/22 11:46:27;;;;;;;0.20;0.20;;;27.20;99.90;;;;;;4876401;28;20695;-82
2021/03/22 11:48:49;;;;;;;0.20;0.20;;;29.90;99.90;;;;;;4894201;28;20652;-78
2021/03/22 11:51:13;;;;;;;0.20;0.20;;;32.80;99.90;;;;;;4893873;28;20216;-78
2021/03/22 11:54:01;;;;;;;0.20;0.20;;;35.40;99.90;;;;;;4861016;28;20190;-77
2021/03/22 11:56:27;;;;;;;0.20;0.20;;;37.10;99.90;;;;;;4876562;28;20756;-76
2021/03/22 11:58:49;;;;;;;0.20;0.20;;;37.40;99.90;;;;;;4893953;28;20961;-75
2021/03/22 12:01:24;;;;;;;0.30;0.30;;;36.40;99.90;;;;;;4859494;28;20208;-73
2021/03/22 12:03:47;;;;;;;0.20;0.20;;;35.10;99.90;;;;;;4859977;28;20250;-74
2021/03/22 12:06:17;;;;;;;0.30;0.30;;;33.90;99.90;;;;;;4891522;28;20203;-75
2021/03/22 12:08:42;;;;;;;0.20;0.20;;;32.20;99.90;;;;;;4867297;28;20551;-74
2021/03/22 12:11:06;;;;;;;0.30;0.30;;;29.50;99.90;;;;;;4882569;28;20238;-75
2021/03/22 12:13:28;;;;;;;0.30;0.30;;;28.40;99.90;;;;;;4892855;28;20658;-75
2021/03/22 12:15:50;;;;;;;0.20;0.20;;;29.40;99.90;;;;;;4876768;28;20215;-75
2021/03/22 12:18:21;;;;;;;0.30;0.30;;;31.20;99.90;;;;;;4894175;28;20247;-75
2021/03/22 12:20:43;;;;;;;0.30;0.30;;;33.40;99.90;;;;;;4876132;28;20205;-74
2021/03/22 12:23:10;;;;;;;0.20;0.20;;;35.10;99.90;;;;;;4877511;28;20295;-76
2021/03/22 12:25:36;;;;;;;0.20;0.20;;;36.50;99.90;;;;;;4877288;28;20661;-74
2021/03/22 12:27:58;;;;;;;0.20;0.20;;;38.10;99.90;;;;;;4857256;28;20206;-75
2021/03/22 12:30:22;;;;;;;0.20;0.20;;;39.70;99.90;;;;;;4874251;28;20216;-76
2021/03/22 12:32:44;;;;;;;0.10;0.10;;;39.20;99.90;;;;;;4877441;28;20277;-76
2021/03/22 12:35:16;;;;;;;0.20;0.20;;;37.00;99.90;;;;;;4869269;28;20566;-75
2021/03/22 12:37:43;;;;;;;0.20;0.20;;;34.20;99.90;;;;;;4874369;28;20717;-75
2021/03/22 12:40:08;;;;;;;0.20;0.20;;;32.90;99.90;;;;;;4856578;28;20212;-76
2021/03/22 12:42:30;;;;;;;0.20;0.20;;;32.50;99.90;;;;;;4875260;28;20679;-75
2021/03/22 12:44:53;;;;;;;0.20;0.20;;;31.10;99.90;;;;;;4867387;28;20246;-76
2021/03/22 12:47:21;;;;;;;0.28;0.28;;;29.00;99.90;;;;;;4846808;28;20619;-76
2021/03/22 12:49:43;;;;;;;0.13;0.13;;;26.60;99.90;;;;;;4865756;28;20268;-74
2021/03/22 12:52:06;;;;;;;0.27;0.27;;;24.30;99.90;;;;;;4865204;28;20231;-76